Weather Data

Pearl Creek Farm: 8878 N Farm Road 75, Walnut Grove MO 65770

<== Previous Day (Wednesday 06 Apr 2016) | Next Day (Friday 08 Apr 2016) ==>

Summary Precipitation Data For Thursday 07 April 2016

ElementValueUnits
Precipitation0.23"
NotesRain was from yesterday. This observation includes multiple day totals starting on 06 April 2016.
SourcePearl Creek Farm

Summary Temperature Data For Thursday 07 April 2016

ElementValueUnits
High Temperature68 oF
Low Temperature42 oF
Average Temperature56 oF
High Humidity71 %
Low Humidity21 %
Average Humidity38 %
SourceSpringfield-Branson National Airport (SGF)

Detail Temperature Data For Thursday 07 April 2016

Date / TimeTemp (F)RH (%)Dew Pt (F)Report Date / TimeSource
2016-04-07 00:52:00 42 71 33.0 2017-12-29 17:00:26.17417 Springfield-Branson National Airport (SGF)
2016-04-07 01:52:00 46 61 33.0 2017-12-29 17:00:26.17417 Springfield-Branson National Airport (SGF)
2016-04-07 02:52:00 52 45 31.0 2017-12-29 17:00:26.17417 Springfield-Branson National Airport (SGF)
2016-04-07 03:52:00 51 46 31.0 2017-12-29 17:00:26.17417 Springfield-Branson National Airport (SGF)
2016-04-07 04:52:00 52 47 32.0 2017-12-29 17:00:26.17417 Springfield-Branson National Airport (SGF)
2016-04-07 05:52:00 53 45 32.0 2017-12-29 17:00:26.17417 Springfield-Branson National Airport (SGF)
2016-04-07 06:52:00 56 46 35.0 2017-12-29 17:00:26.17417 Springfield-Branson National Airport (SGF)
2016-04-07 07:52:00 56 47 36.0 2017-12-29 17:00:26.17417 Springfield-Branson National Airport (SGF)
2016-04-07 08:52:00 58 42 35.0 2017-12-29 17:00:26.17417 Springfield-Branson National Airport (SGF)
2016-04-07 09:52:00 60 38 34.0 2017-12-29 17:00:26.17417 Springfield-Branson National Airport (SGF)
2016-04-07 10:52:00 63 30 31.0 2017-12-29 17:00:26.17417 Springfield-Branson National Airport (SGF)
2016-04-07 11:52:00 66 26 30.0 2017-12-29 17:00:26.17417 Springfield-Branson National Airport (SGF)
2016-04-07 12:52:00 65 26 29.0 2017-12-29 17:00:26.17417 Springfield-Branson National Airport (SGF)
2016-04-07 13:52:00 67 22 27.0 2017-12-29 17:00:26.17417 Springfield-Branson National Airport (SGF)
2016-04-07 14:52:00 68 21 27.0 2017-12-29 17:00:26.17417 Springfield-Branson National Airport (SGF)
2016-04-07 15:52:00 66 22 26.0 2017-12-29 17:00:26.17417 Springfield-Branson National Airport (SGF)
2016-04-07 16:52:00 64 24 26.0 2017-12-29 17:00:26.17417 Springfield-Branson National Airport (SGF)
2016-04-07 17:52:00 61 23 23.0 2017-12-29 17:00:26.17417 Springfield-Branson National Airport (SGF)
2016-04-07 18:52:00 57 26 22.0 2017-12-29 17:00:26.17417 Springfield-Branson National Airport (SGF)
2016-04-07 19:52:00 53 31 23.0 2017-12-29 17:00:26.17417 Springfield-Branson National Airport (SGF)
2016-04-07 20:52:00 49 38 24.0 2017-12-29 17:00:26.17417 Springfield-Branson National Airport (SGF)
2016-04-07 21:52:00 51 31 21.0 2017-12-29 17:00:26.17417 Springfield-Branson National Airport (SGF)
2016-04-07 22:52:00 43 51 26.0 2017-12-29 17:00:26.17417 Springfield-Branson National Airport (SGF)
2016-04-07 23:52:00 42 55 27.0 2017-12-29 17:00:26.17417 Springfield-Branson National Airport (SGF)

A total of 24 rows are displayed.